sensor_id;sensor_type;location;lat;lon;timestamp;temperature;humidity
18577;DHT22;9418;52.694;13.294;2024-03-23T00:51:59;7.50;99.90
18577;DHT22;9418;52.694;13.294;2024-03-23T00:54:24;7.50;99.90
18577;DHT22;9418;52.694;13.294;2024-03-23T00:56:51;7.50;99.90
18577;DHT22;9418;52.694;13.294;2024-03-23T00:59:16;7.50;99.90
18577;DHT22;9418;52.694;13.294;2024-03-23T01:01:43;7.50;99.90
18577;DHT22;9418;52.694;13.294;2024-03-23T01:04:09;7.50;99.90
18577;DHT22;9418;52.694;13.294;2024-03-23T01:06:35;7.50;99.90
18577;DHT22;9418;52.694;13.294;2024-03-23T01:09:03;7.50;99.90
18577;DHT22;9418;52.694;13.294;2024-03-23T01:11:29;7.50;99.90
18577;DHT22;9418;52.694;13.294;2024-03-23T01:13:55;7.50;99.90
18577;DHT22;9418;52.694;13.294;2024-03-23T01:16:22;7.50;99.90
18577;DHT22;9418;52.694;13.294;2024-03-23T01:18:47;7.50;99.90
18577;DHT22;9418;52.694;13.294;2024-03-23T01:21:14;7.50;99.90
18577;DHT22;9418;52.694;13.294;2024-03-23T01:23:40;7.50;99.90
18577;DHT22;9418;52.694;13.294;2024-03-23T01:26:08;7.50;99.90
18577;DHT22;9418;52.694;13.294;2024-03-23T01:28:35;7.50;99.90
18577;DHT22;9418;52.694;13.294;2024-03-23T01:31:02;7.50;99.90
18577;DHT22;9418;52.694;13.294;2024-03-23T01:33:27;7.50;99.90
18577;DHT22;9418;52.694;13.294;2024-03-23T01:35:54;7.50;99.90
18577;DHT22;9418;52.694;13.294;2024-03-23T01:38:20;7.50;99.90
18577;DHT22;9418;52.694;13.294;2024-03-23T01:40:46;7.50;99.90
18577;DHT22;9418;52.694;13.294;2024-03-23T01:43:13;7.50;99.90
18577;DHT22;9418;52.694;13.294;2024-03-23T01:45:40;7.50;99.90
18577;DHT22;9418;52.694;13.294;2024-03-23T01:48:06;7.50;99.90
18577;DHT22;9418;52.694;13.294;2024-03-23T01:50:33;7.50;99.90
18577;DHT22;9418;52.694;13.294;2024-03-23T01:52:59;7.50;99.90
18577;DHT22;9418;52.694;13.294;2024-03-23T01:55:26;7.40;99.90
18577;DHT22;9418;52.694;13.294;2024-03-23T01:57:52;7.50;99.90
18577;DHT22;9418;52.694;13.294;2024-03-23T02:00:20;7.50;99.90
18577;DHT22;9418;52.694;13.294;2024-03-23T02:02:46;7.50;99.90
18577;DHT22;9418;52.694;13.294;2024-03-23T02:05:13;7.50;99.90
18577;DHT22;9418;52.694;13.294;2024-03-23T02:07:39;7.50;99.90
18577;DHT22;9418;52.694;13.294;2024-03-23T02:10:07;7.50;99.90
18577;DHT22;9418;52.694;13.294;2024-03-23T02:12:32;7.50;99.90
18577;DHT22;9418;52.694;13.294;2024-03-23T02:14:59;7.50;99.90
18577;DHT22;9418;52.694;13.294;2024-03-23T02:17:26;7.50;99.90
18577;DHT22;9418;52.694;13.294;2024-03-23T02:19:52;7.40;99.90
18577;DHT22;9418;52.694;13.294;2024-03-23T02:22:18;7.50;99.90
18577;DHT22;9418;52.694;13.294;2024-03-23T02:24:46;7.40;99.90
18577;DHT22;9418;52.694;13.294;2024-03-23T02:27:12;7.40;99.90
18577;DHT22;9418;52.694;13.294;2024-03-23T02:29:38;7.40;99.90
18577;DHT22;9418;52.694;13.294;2024-03-23T02:32:04;7.50;99.90
18577;DHT22;9418;52.694;13.294;2024-03-23T02:34:31;7.50;99.90
18577;DHT22;9418;52.694;13.294;2024-03-23T02:36:57;7.40;99.90
18577;DHT22;9418;52.694;13.294;2024-03-23T02:39:24;7.40;99.90
18577;DHT22;9418;52.694;13.294;2024-03-23T02:41:51;7.40;99.90
18577;DHT22;9418;52.694;13.294;2024-03-23T02:44:17;7.40;99.90
18577;DHT22;9418;52.694;13.294;2024-03-23T02:46:43;7.40;99.90
18577;DHT22;9418;52.694;13.294;2024-03-23T02:49:09;7.40;99.90
18577;DHT22;9418;52.694;13.294;2024-03-23T02:51:35;7.40;99.90
18577;DHT22;9418;52.694;13.294;2024-03-23T02:54:01;7.40;99.90
18577;DHT22;9418;52.694;13.294;2024-03-23T02:56:27;7.40;99.90
18577;DHT22;9418;52.694;13.294;2024-03-23T02:58:55;7.40;99.90
18577;DHT22;9418;52.694;13.294;2024-03-23T03:01:21;7.40;99.90
18577;DHT22;9418;52.694;13.294;2024-03-23T03:03:47;7.40;99.90
18577;DHT22;9418;52.694;13.294;2024-03-23T03:06:22;7.20;99.90
18577;DHT22;9418;52.694;13.294;2024-03-23T03:08:49;7.20;99.90
18577;DHT22;9418;52.694;13.294;2024-03-23T03:11:14;7.10;99.90
18577;DHT22;9418;52.694;13.294;2024-03-23T03:13:41;7.00;99.90
18577;DHT22;9418;52.694;13.294;2024-03-23T03:16:09;7.10;99.90
18577;DHT22;9418;52.694;13.294;2024-03-23T03:18:36;7.10;99.90
18577;DHT22;9418;52.694;13.294;2024-03-23T03:21:02;7.10;99.90
18577;DHT22;9418;52.694;13.294;2024-03-23T03:23:30;7.00;99.90
18577;DHT22;9418;52.694;13.294;2024-03-23T03:25:56;7.00;99.90
18577;DHT22;9418;52.694;13.294;2024-03-23T03:28:23;7.00;99.90
18577;DHT22;9418;52.694;13.294;2024-03-23T03:30:48;7.00;99.90
18577;DHT22;9418;52.694;13.294;2024-03-23T03:33:16;7.00;99.90
18577;DHT22;9418;52.694;13.294;2024-03-23T03:35:42;6.90;99.90
18577;DHT22;9418;52.694;13.294;2024-03-23T03:38:10;6.90;99.90
18577;DHT22;9418;52.694;13.294;2024-03-23T03:40:36;6.80;99.90
18577;DHT22;9418;52.694;13.294;2024-03-23T03:43:03;6.90;99.90
18577;DHT22;9418;52.694;13.294;2024-03-23T03:45:28;6.90;99.90
18577;DHT22;9418;52.694;13.294;2024-03-23T03:47:55;6.90;99.90
18577;DHT22;9418;52.694;13.294;2024-03-23T03:50:23;6.90;99.90
18577;DHT22;9418;52.694;13.294;2024-03-23T03:52:50;6.90;99.90
18577;DHT22;9418;52.694;13.294;2024-03-23T03:55:16;6.90;99.90
18577;DHT22;9418;52.694;13.294;2024-03-23T03:57:43;6.90;99.90
18577;DHT22;9418;52.694;13.294;2024-03-23T04:00:10;6.90;99.90
18577;DHT22;9418;52.694;13.294;2024-03-23T04:02:37;6.90;99.90
18577;DHT22;9418;52.694;13.294;2024-03-23T04:05:03;6.90;99.90
18577;DHT22;9418;52.694;13.294;2024-03-23T04:07:31;6.90;99.90
18577;DHT22;9418;52.694;13.294;2024-03-23T04:09:57;6.90;99.90
18577;DHT22;9418;52.694;13.294;2024-03-23T04:12:23;6.90;99.90
18577;DHT22;9418;52.694;13.294;2024-03-23T04:14:49;6.90;99.90
18577;DHT22;9418;52.694;13.294;2024-03-23T04:17:15;6.90;99.90
18577;DHT22;9418;52.694;13.294;2024-03-23T04:19:41;6.90;99.90
18577;DHT22;9418;52.694;13.294;2024-03-23T04:22:08;6.90;99.90
18577;DHT22;9418;52.694;13.294;2024-03-23T04:24:35;6.90;99.90
18577;DHT22;9418;52.694;13.294;2024-03-23T04:27:02;6.90;99.90
18577;DHT22;9418;52.694;13.294;2024-03-23T04:29:28;6.90;99.90
18577;DHT22;9418;52.694;13.294;2024-03-23T04:31:55;6.90;99.90
18577;DHT22;9418;52.694;13.294;2024-03-23T04:34:21;6.90;99.90
18577;DHT22;9418;52.694;13.294;2024-03-23T04:36:48;6.90;99.90
18577;DHT22;9418;52.694;13.294;2024-03-23T04:39:13;6.90;99.90
18577;DHT22;9418;52.694;13.294;2024-03-23T04:41:41;6.90;99.90
18577;DHT22;9418;52.694;13.294;2024-03-23T04:44:08;6.90;99.90
18577;DHT22;9418;52.694;13.294;2024-03-23T04:46:35;6.90;99.90
18577;DHT22;9418;52.694;13.294;2024-03-23T04:49:02;6.90;99.90
18577;DHT22;9418;52.694;13.294;2024-03-23T04:51:35;6.90;99.90
18577;DHT22;9418;52.694;13.294;2024-03-23T04:54:03;6.90;99.90
18577;DHT22;9418;52.694;13.294;2024-03-23T04:56:29;6.80;99.90
18577;DHT22;9418;52.694;13.294;2024-03-23T04:58:58;6.80;99.90
18577;DHT22;9418;52.694;13.294;2024-03-23T05:01:26;6.80;99.90
18577;DHT22;9418;52.694;13.294;2024-03-23T05:03:53;6.80;99.90
18577;DHT22;9418;52.694;13.294;2024-03-23T05:06:19;6.80;99.90
18577;DHT22;9418;52.694;13.294;2024-03-23T05:08:45;6.80;99.90
18577;DHT22;9418;52.694;13.294;2024-03-23T05:11:11;6.80;99.90
18577;DHT22;9418;52.694;13.294;2024-03-23T05:13:38;6.70;99.90
18577;DHT22;9418;52.694;13.294;2024-03-23T05:16:05;6.80;99.90
18577;DHT22;9418;52.694;13.294;2024-03-23T05:18:32;6.80;99.90
18577;DHT22;9418;52.694;13.294;2024-03-23T05:20:58;6.80;99.90
18577;DHT22;9418;52.694;13.294;2024-03-23T05:23:25;6.80;99.90
18577;DHT22;9418;52.694;13.294;2024-03-23T05:25:50;6.80;99.90
18577;DHT22;9418;52.694;13.294;2024-03-23T05:28:18;6.80;99.90
18577;DHT22;9418;52.694;13.294;2024-03-23T05:30:49;6.80;99.90
18577;DHT22;9418;52.694;13.294;2024-03-23T05:33:17;6.80;99.90
18577;DHT22;9418;52.694;13.294;2024-03-23T05:35:43;6.70;99.90
18577;DHT22;9418;52.694;13.294;2024-03-23T05:38:09;6.70;99.90
18577;DHT22;9418;52.694;13.294;2024-03-23T05:40:35;6.70;99.90
18577;DHT22;9418;52.694;13.294;2024-03-23T05:43:05;6.70;99.90
18577;DHT22;9418;52.694;13.294;2024-03-23T05:45:31;6.60;99.90
18577;DHT22;9418;52.694;13.294;2024-03-23T05:47:57;6.60;99.90
18577;DHT22;9418;52.694;13.294;2024-03-23T05:50:24;6.60;99.90
18577;DHT22;9418;52.694;13.294;2024-03-23T05:52:51;6.60;99.90
18577;DHT22;9418;52.694;13.294;2024-03-23T05:55:18;6.60;99.90
18577;DHT22;9418;52.694;13.294;2024-03-23T05:57:43;6.50;99.90
18577;DHT22;9418;52.694;13.294;2024-03-23T06:00:11;6.60;99.90
18577;DHT22;9418;52.694;13.294;2024-03-23T06:02:41;6.60;99.90
18577;DHT22;9418;52.694;13.294;2024-03-23T06:05:09;6.60;99.90
18577;DHT22;9418;52.694;13.294;2024-03-23T06:07:36;6.60;99.90
18577;DHT22;9418;52.694;13.294;2024-03-23T06:10:04;6.60;99.90
18577;DHT22;9418;52.694;13.294;2024-03-23T06:12:29;6.50;99.90
18577;DHT22;9418;52.694;13.294;2024-03-23T06:14:56;6.50;99.90
18577;DHT22;9418;52.694;13.294;2024-03-23T06:17:21;6.50;99.90
18577;DHT22;9418;52.694;13.294;2024-03-23T06:19:48;6.50;99.90
18577;DHT22;9418;52.694;13.294;2024-03-23T06:22:14;6.50;99.90
18577;DHT22;9418;52.694;13.294;2024-03-23T06:24:42;6.50;99.90
18577;DHT22;9418;52.694;13.294;2024-03-23T06:27:07;6.50;99.90
18577;DHT22;9418;52.694;13.294;2024-03-23T06:29:34;6.50;99.90
18577;DHT22;9418;52.694;13.294;2024-03-23T06:32:01;6.50;99.90
18577;DHT22;9418;52.694;13.294;2024-03-23T06:34:29;6.60;99.90
18577;DHT22;9418;52.694;13.294;2024-03-23T06:36:54;6.60;99.90
18577;DHT22;9418;52.694;13.294;2024-03-23T06:39:21;6.50;99.90
18577;DHT22;9418;52.694;13.294;2024-03-23T06:41:53;6.60;99.90
18577;DHT22;9418;52.694;13.294;2024-03-23T06:44:20;6.60;99.90
18577;DHT22;9418;52.694;13.294;2024-03-23T06:46:45;6.50;99.90
18577;DHT22;9418;52.694;13.294;2024-03-23T06:49:13;6.60;99.90
18577;DHT22;9418;52.694;13.294;2024-03-23T06:51:38;6.60;99.90
18577;DHT22;9418;52.694;13.294;2024-03-23T06:54:05;6.60;99.90
18577;DHT22;9418;52.694;13.294;2024-03-23T06:56:31;6.60;99.90
18577;DHT22;9418;52.694;13.294;2024-03-23T06:58:59;6.70;99.90
18577;DHT22;9418;52.694;13.294;2024-03-23T07:01:25;6.70;99.90
18577;DHT22;9418;52.694;13.294;2024-03-23T07:03:51;6.60;99.90
18577;DHT22;9418;52.694;13.294;2024-03-23T07:06:17;6.60;99.90
18577;DHT22;9418;52.694;13.294;2024-03-23T07:08:43;6.70;99.90
18577;DHT22;9418;52.694;13.294;2024-03-23T07:11:10;6.70;99.90
18577;DHT22;9418;52.694;13.294;2024-03-23T07:13:35;6.80;99.90
18577;DHT22;9418;52.694;13.294;2024-03-23T07:16:04;6.90;99.90
18577;DHT22;9418;52.694;13.294;2024-03-23T07:18:29;6.80;99.90
18577;DHT22;9418;52.694;13.294;2024-03-23T07:20:56;6.80;99.90
18577;DHT22;9418;52.694;13.294;2024-03-23T07:23:23;6.60;77.30
18577;DHT22;9418;52.694;13.294;2024-03-23T07:25:56;6.60;99.90
18577;DHT22;9418;52.694;13.294;2024-03-23T07:28:22;6.60;99.90
18577;DHT22;9418;52.694;13.294;2024-03-23T07:30:47;6.60;99.90
18577;DHT22;9418;52.694;13.294;2024-03-23T07:33:15;6.60;99.90
18577;DHT22;9418;52.694;13.294;2024-03-23T07:35:41;6.60;99.90
18577;DHT22;9418;52.694;13.294;2024-03-23T07:38:07;6.60;99.90
18577;DHT22;9418;52.694;13.294;2024-03-23T07:40:33;6.70;99.90
18577;DHT22;9418;52.694;13.294;2024-03-23T07:42:59;6.80;99.90
18577;DHT22;9418;52.694;13.294;2024-03-23T07:45:25;6.70;99.90
18577;DHT22;9418;52.694;13.294;2024-03-23T07:47:52;6.70;99.90
18577;DHT22;9418;52.694;13.294;2024-03-23T07:50:19;6.70;99.90
18577;DHT22;9418;52.694;13.294;2024-03-23T07:52:45;6.70;99.90
18577;DHT22;9418;52.694;13.294;2024-03-23T07:55:11;6.70;99.90
18577;DHT22;9418;52.694;13.294;2024-03-23T07:57:37;6.60;99.90
18577;DHT22;9418;52.694;13.294;2024-03-23T08:00:04;6.50;99.90
18577;DHT22;9418;52.694;13.294;2024-03-23T08:02:31;6.40;23.20
18577;DHT22;9418;52.694;13.294;2024-03-23T08:04:57;6.30;99.90
18577;DHT22;9418;52.694;13.294;2024-03-23T08:07:25;6.20;25.00
18577;DHT22;9418;52.694;13.294;2024-03-23T08:09:51;6.20;22.00
18577;DHT22;9418;52.694;13.294;2024-03-23T08:12:17;6.20;99.90
18577;DHT22;9418;52.694;13.294;2024-03-23T08:14:43;6.10;99.90
18577;DHT22;9418;52.694;13.294;2024-03-23T08:17:09;6.10;99.90
18577;DHT22;9418;52.694;13.294;2024-03-23T08:19:35;6.10;99.90
18577;DHT22;9418;52.694;13.294;2024-03-23T08:22:01;6.00;99.90
18577;DHT22;9418;52.694;13.294;2024-03-23T08:24:29;6.00;99.90
18577;DHT22;9418;52.694;13.294;2024-03-23T08:26:55;6.10;99.90
18577;DHT22;9418;52.694;13.294;2024-03-23T08:29:21;6.20;99.90
18577;DHT22;9418;52.694;13.294;2024-03-23T08:31:48;6.10;99.90
18577;DHT22;9418;52.694;13.294;2024-03-23T08:34:13;6.10;99.90
18577;DHT22;9418;52.694;13.294;2024-03-23T08:36:40;6.10;99.90
18577;DHT22;9418;52.694;13.294;2024-03-23T08:39:06;5.90;40.20
18577;DHT22;9418;52.694;13.294;2024-03-23T08:41:34;5.80;55.90
18577;DHT22;9418;52.694;13.294;2024-03-23T08:43:59;5.70;49.00
18577;DHT22;9418;52.694;13.294;2024-03-23T08:46:26;5.60;65.60
18577;DHT22;9418;52.694;13.294;2024-03-23T08:48:52;5.70;48.60
18577;DHT22;9418;52.694;13.294;2024-03-23T08:51:19;5.70;36.10
18577;DHT22;9418;52.694;13.294;2024-03-23T08:53:45;5.70;55.80
18577;DHT22;9418;52.694;13.294;2024-03-23T08:56:12;5.70;30.90
18577;DHT22;9418;52.694;13.294;2024-03-23T08:58:39;5.80;35.80
18577;DHT22;9418;52.694;13.294;2024-03-23T09:01:08;5.80;34.60
18577;DHT22;9418;52.694;13.294;2024-03-23T09:03:34;5.80;34.30
18577;DHT22;9418;52.694;13.294;2024-03-23T09:06:02;5.70;75.80
18577;DHT22;9418;52.694;13.294;2024-03-23T09:08:27;5.50;99.90
18577;DHT22;9418;52.694;13.294;2024-03-23T09:10:54;5.50;99.90
18577;DHT22;9418;52.694;13.294;2024-03-23T09:13:20;5.40;99.90
18577;DHT22;9418;52.694;13.294;2024-03-23T09:15:49;5.30;99.90
18577;DHT22;9418;52.694;13.294;2024-03-23T09:18:14;5.40;99.90
18577;DHT22;9418;52.694;13.294;2024-03-23T09:20:41;5.40;91.50
18577;DHT22;9418;52.694;13.294;2024-03-23T09:23:07;5.40;90.50
18577;DHT22;9418;52.694;13.294;2024-03-23T09:25:36;5.30;96.70
18577;DHT22;9418;52.694;13.294;2024-03-23T09:28:02;5.30;99.90
18577;DHT22;9418;52.694;13.294;2024-03-23T09:30:29;5.20;99.90
18577;DHT22;9418;52.694;13.294;2024-03-23T09:32:56;5.40;86.60
18577;DHT22;9418;52.694;13.294;2024-03-23T09:35:22;5.40;75.50
18577;DHT22;9418;52.694;13.294;2024-03-23T09:37:48;5.30;99.90
18577;DHT22;9418;52.694;13.294;2024-03-23T09:40:15;5.30;99.90
18577;DHT22;9418;52.694;13.294;2024-03-23T09:42:42;5.30;99.90
18577;DHT22;9418;52.694;13.294;2024-03-23T09:45:17;5.40;99.90
18577;DHT22;9418;52.694;13.294;2024-03-23T09:47:45;5.40;87.80
18577;DHT22;9418;52.694;13.294;2024-03-23T09:50:14;5.50;77.80
18577;DHT22;9418;52.694;13.294;2024-03-23T09:52:39;5.50;99.60
18577;DHT22;9418;52.694;13.294;2024-03-23T09:55:08;5.50;82.20
18577;DHT22;9418;52.694;13.294;2024-03-23T09:57:33;5.50;99.90
18577;DHT22;9418;52.694;13.294;2024-03-23T10:00:00;5.40;99.90
18577;DHT22;9418;52.694;13.294;2024-03-23T10:02:26;5.50;99.90
18577;DHT22;9418;52.694;13.294;2024-03-23T10:04:52;5.40;99.90
18577;DHT22;9418;52.694;13.294;2024-03-23T10:07:20;5.50;99.90
18577;DHT22;9418;52.694;13.294;2024-03-23T10:09:48;5.60;99.90
18577;DHT22;9418;52.694;13.294;2024-03-23T10:12:15;5.70;99.90
18577;DHT22;9418;52.694;13.294;2024-03-23T10:14:41;5.80;99.90
18577;DHT22;9418;52.694;13.294;2024-03-23T10:17:12;5.80;99.90
18577;DHT22;9418;52.694;13.294;2024-03-23T10:19:40;5.80;99.90
18577;DHT22;9418;52.694;13.294;2024-03-23T10:22:08;5.90;99.90
18577;DHT22;9418;52.694;13.294;2024-03-23T10:24:36;5.90;99.90
18577;DHT22;9418;52.694;13.294;2024-03-23T10:27:01;5.90;99.90
18577;DHT22;9418;52.694;13.294;2024-03-23T10:29:28;5.90;99.90
18577;DHT22;9418;52.694;13.294;2024-03-23T10:31:53;5.90;99.90
18577;DHT22;9418;52.694;13.294;2024-03-23T10:34:25;5.90;99.90
18577;DHT22;9418;52.694;13.294;2024-03-23T10:36:53;5.90;99.90
18577;DHT22;9418;52.694;13.294;2024-03-23T10:39:20;5.90;99.90
18577;DHT22;9418;52.694;13.294;2024-03-23T10:41:49;6.00;99.90
18577;DHT22;9418;52.694;13.294;2024-03-23T10:44:17;6.00;99.90
18577;DHT22;9418;52.694;13.294;2024-03-23T10:46:43;6.00;99.90
18577;DHT22;9418;52.694;13.294;2024-03-23T10:49:10;6.00;99.90
18577;DHT22;9418;52.694;13.294;2024-03-23T10:51:36;6.10;99.90
18577;DHT22;9418;52.694;13.294;2024-03-23T10:54:04;6.10;99.90
18577;DHT22;9418;52.694;13.294;2024-03-23T10:56:32;6.20;99.90
18577;DHT22;9418;52.694;13.294;2024-03-23T10:59:04;6.30;99.90
18577;DHT22;9418;52.694;13.294;2024-03-23T11:01:33;6.30;99.90
18577;DHT22;9418;52.694;13.294;2024-03-23T11:04:00;6.30;99.90
18577;DHT22;9418;52.694;13.294;2024-03-23T11:06:36;6.30;99.90
18577;DHT22;9418;52.694;13.294;2024-03-23T11:09:03;6.30;99.90
18577;DHT22;9418;52.694;13.294;2024-03-23T11:11:29;6.40;99.90
18577;DHT22;9418;52.694;13.294;2024-03-23T11:13:59;6.40;99.90
18577;DHT22;9418;52.694;13.294;2024-03-23T11:16:27;6.40;99.90
18577;DHT22;9418;52.694;13.294;2024-03-23T11:19:34;6.50;99.90
18577;DHT22;9418;52.694;13.294;2024-03-23T11:22:01;6.40;99.90
18577;DHT22;9418;52.694;13.294;2024-03-23T11:24:27;6.50;99.90
18577;DHT22;9418;52.694;13.294;2024-03-23T11:26:53;6.60;99.90
18577;DHT22;9418;52.694;13.294;2024-03-23T11:29:19;6.60;99.90
18577;DHT22;9418;52.694;13.294;2024-03-23T11:31:46;6.60;99.90
18577;DHT22;9418;52.694;13.294;2024-03-23T11:34:13;6.70;99.90
18577;DHT22;9418;52.694;13.294;2024-03-23T11:36:41;6.80;99.90
18577;DHT22;9418;52.694;13.294;2024-03-23T11:39:14;6.90;99.90
18577;DHT22;9418;52.694;13.294;2024-03-23T11:41:46;6.90;99.90
18577;DHT22;9418;52.694;13.294;2024-03-23T11:44:17;7.20;99.90
18577;DHT22;9418;52.694;13.294;2024-03-23T11:46:42;7.40;99.90
18577;DHT22;9418;52.694;13.294;2024-03-23T11:49:20;7.40;99.90
18577;DHT22;9418;52.694;13.294;2024-03-23T11:51:49;7.40;99.90
18577;DHT22;9418;52.694;13.294;2024-03-23T11:54:15;7.40;99.90
18577;DHT22;9418;52.694;13.294;2024-03-23T11:56:42;7.60;99.90
18577;DHT22;9418;52.694;13.294;2024-03-23T11:59:30;7.50;99.90
18577;DHT22;9418;52.694;13.294;2024-03-23T12:01:56;7.40;99.90
18577;DHT22;9418;52.694;13.294;2024-03-23T12:04:26;7.30;99.90
18577;DHT22;9418;52.694;13.294;2024-03-23T12:07:09;7.20;99.90
18577;DHT22;9418;52.694;13.294;2024-03-23T12:09:35;7.20;99.90
18577;DHT22;9418;52.694;13.294;2024-03-23T12:12:06;7.10;99.90
18577;DHT22;9418;52.694;13.294;2024-03-23T12:14:33;7.00;99.90
18577;DHT22;9418;52.694;13.294;2024-03-23T12:17:08;7.00;99.90
18577;DHT22;9418;52.694;13.294;2024-03-23T12:19:34;7.00;99.90
18577;DHT22;9418;52.694;13.294;2024-03-23T12:22:02;7.00;99.90
18577;DHT22;9418;52.694;13.294;2024-03-23T12:24:29;7.00;99.90
18577;DHT22;9418;52.694;13.294;2024-03-23T12:27:00;7.10;99.90
18577;DHT22;9418;52.694;13.294;2024-03-23T12:29:27;7.00;99.90
18577;DHT22;9418;52.694;13.294;2024-03-23T12:31:53;7.10;99.90
18577;DHT22;9418;52.694;13.294;2024-03-23T12:34:19;7.10;99.90
18577;DHT22;9418;52.694;13.294;2024-03-23T12:36:46;7.30;99.90
18577;DHT22;9418;52.694;13.294;2024-03-23T12:39:12;7.40;99.90
18577;DHT22;9418;52.694;13.294;2024-03-23T12:41:39;7.60;99.90
18577;DHT22;9418;52.694;13.294;2024-03-23T12:44:05;7.70;99.90
18577;DHT22;9418;52.694;13.294;2024-03-23T12:46:33;7.70;99.90
18577;DHT22;9418;52.694;13.294;2024-03-23T12:48:59;8.10;99.90
18577;DHT22;9418;52.694;13.294;2024-03-23T12:51:25;8.20;20.80
18577;DHT22;9418;52.694;13.294;2024-03-23T12:53:51;8.20;34.00
18577;DHT22;9418;52.694;13.294;2024-03-23T12:56:19;8.30;41.50
18577;DHT22;9418;52.694;13.294;2024-03-23T12:58:44;8.50;49.20
18577;DHT22;9418;52.694;13.294;2024-03-23T13:01:14;8.60;39.20
18577;DHT22;9418;52.694;13.294;2024-03-23T13:03:39;8.70;44.90
18577;DHT22;9418;52.694;13.294;2024-03-23T13:06:06;8.70;58.00
18577;DHT22;9418;52.694;13.294;2024-03-23T13:08:33;8.60;61.30
18577;DHT22;9418;52.694;13.294;2024-03-23T13:10:59;8.60;58.70
18577;DHT22;9418;52.694;13.294;2024-03-23T13:13:26;8.50;47.40
18577;DHT22;9418;52.694;13.294;2024-03-23T13:15:53;8.90;54.40
18577;DHT22;9418;52.694;13.294;2024-03-23T13:18:18;9.30;57.50
18577;DHT22;9418;52.694;13.294;2024-03-23T13:20:45;9.10;69.60
18577;DHT22;9418;52.694;13.294;2024-03-23T13:23:10;9.40;75.00
18577;DHT22;9418;52.694;13.294;2024-03-23T13:25:37;9.80;75.80
18577;DHT22;9418;52.694;13.294;2024-03-23T13:28:03;9.90;82.30
18577;DHT22;9418;52.694;13.294;2024-03-23T13:30:31;9.70;82.30
18577;DHT22;9418;52.694;13.294;2024-03-23T13:32:56;9.80;86.80
18577;DHT22;9418;52.694;13.294;2024-03-23T13:35:23;10.10;85.20
18577;DHT22;9418;52.694;13.294;2024-03-23T13:37:49;9.80;88.60
18577;DHT22;9418;52.694;13.294;2024-03-23T13:40:15;10.50;98.70
18577;DHT22;9418;52.694;13.294;2024-03-23T13:42:41;11.40;99.90
18577;DHT22;9418;52.694;13.294;2024-03-23T13:45:08;11.30;99.90
18577;DHT22;9418;52.694;13.294;2024-03-23T13:47:38;11.30;99.90
18577;DHT22;9418;52.694;13.294;2024-03-23T13:50:04;11.00;99.90
18577;DHT22;9418;52.694;13.294;2024-03-23T13:52:32;9.80;99.90
18577;DHT22;9418;52.694;13.294;2024-03-23T13:54:58;7.80;99.90
18577;DHT22;9418;52.694;13.294;2024-03-23T13:57:24;7.20;95.40
18577;DHT22;9418;52.694;13.294;2024-03-23T13:59:51;6.40;72.20
18577;DHT22;9418;52.694;13.294;2024-03-23T14:02:17;5.90;45.20
18577;DHT22;9418;52.694;13.294;2024-03-23T14:04:44;5.70;25.20
18577;DHT22;9418;52.694;13.294;2024-03-23T14:07:11;5.40;99.90
18577;DHT22;9418;52.694;13.294;2024-03-23T14:09:36;5.20;99.90
18577;DHT22;9418;52.694;13.294;2024-03-23T14:12:03;4.90;99.90
18577;DHT22;9418;52.694;13.294;2024-03-23T14:14:29;4.90;99.90
18577;DHT22;9418;52.694;13.294;2024-03-23T14:16:56;4.90;99.90
18577;DHT22;9418;52.694;13.294;2024-03-23T14:19:21;4.90;99.90
18577;DHT22;9418;52.694;13.294;2024-03-23T14:21:49;4.90;99.90
18577;DHT22;9418;52.694;13.294;2024-03-23T14:24:15;4.90;99.90
18577;DHT22;9418;52.694;13.294;2024-03-23T14:26:42;4.90;99.90
18577;DHT22;9418;52.694;13.294;2024-03-23T14:29:08;4.80;99.90
18577;DHT22;9418;52.694;13.294;2024-03-23T14:31:34;4.70;99.90
18577;DHT22;9418;52.694;13.294;2024-03-23T14:34:00;4.70;99.90
18577;DHT22;9418;52.694;13.294;2024-03-23T14:36:27;4.80;99.90
18577;DHT22;9418;52.694;13.294;2024-03-23T14:38:54;5.00;92.80
18577;DHT22;9418;52.694;13.294;2024-03-23T14:41:21;5.80;89.20
18577;DHT22;9418;52.694;13.294;2024-03-23T14:43:46;7.00;99.90
18577;DHT22;9418;52.694;13.294;2024-03-23T14:46:16;7.80;99.90
18577;DHT22;9418;52.694;13.294;2024-03-23T14:48:42;8.60;28.50
18577;DHT22;9418;52.694;13.294;2024-03-23T14:51:10;8.30;59.40
18577;DHT22;9418;52.694;13.294;2024-03-23T14:53:37;8.30;66.50
18577;DHT22;9418;52.694;13.294;2024-03-23T14:56:07;7.90;55.20
18577;DHT22;9418;52.694;13.294;2024-03-23T14:58:33;7.50;39.10
18577;DHT22;9418;52.694;13.294;2024-03-23T15:01:01;7.10;99.90
18577;DHT22;9418;52.694;13.294;2024-03-23T15:03:27;7.90;99.90
18577;DHT22;9418;52.694;13.294;2024-03-23T15:05:54;8.80;50.80
18577;DHT22;9418;52.694;13.294;2024-03-23T15:08:20;9.60;91.70
18577;DHT22;9418;52.694;13.294;2024-03-23T15:10:47;9.50;99.90
18577;DHT22;9418;52.694;13.294;2024-03-23T15:13:14;9.70;99.90
18577;DHT22;9418;52.694;13.294;2024-03-23T15:15:41;9.40;99.90
18577;DHT22;9418;52.694;13.294;2024-03-23T15:18:09;9.90;99.90
18577;DHT22;9418;52.694;13.294;2024-03-23T15:20:35;9.60;99.90
18577;DHT22;9418;52.694;13.294;2024-03-23T15:23:01;10.10;99.90
18577;DHT22;9418;52.694;13.294;2024-03-23T15:25:28;9.80;99.90
18577;DHT22;9418;52.694;13.294;2024-03-23T15:27:54;10.10;99.90
18577;DHT22;9418;52.694;13.294;2024-03-23T15:30:22;9.80;97.80
18577;DHT22;9418;52.694;13.294;2024-03-23T15:32:47;9.10;93.60
18577;DHT22;9418;52.694;13.294;2024-03-23T15:35:14;8.40;72.50
18577;DHT22;9418;52.694;13.294;2024-03-23T15:37:40;7.90;45.30
18577;DHT22;9418;52.694;13.294;2024-03-23T15:40:07;7.50;84.20
18577;DHT22;9418;52.694;13.294;2024-03-23T15:42:35;7.20;99.90
18577;DHT22;9418;52.694;13.294;2024-03-23T15:45:02;7.30;99.90
18577;DHT22;9418;52.694;13.294;2024-03-23T15:47:30;7.30;99.90
18577;DHT22;9418;52.694;13.294;2024-03-23T15:49:56;7.30;99.90
18577;DHT22;9418;52.694;13.294;2024-03-23T15:52:22;7.30;99.90
18577;DHT22;9418;52.694;13.294;2024-03-23T15:54:49;7.30;99.90
18577;DHT22;9418;52.694;13.294;2024-03-23T15:57:15;7.30;99.90
18577;DHT22;9418;52.694;13.294;2024-03-23T15:59:41;7.30;99.90
18577;DHT22;9418;52.694;13.294;2024-03-23T16:02:07;7.40;99.90
18577;DHT22;9418;52.694;13.294;2024-03-23T16:04:35;7.40;99.90
18577;DHT22;9418;52.694;13.294;2024-03-23T16:07:01;7.50;99.90
18577;DHT22;9418;52.694;13.294;2024-03-23T16:09:28;7.80;89.50
18577;DHT22;9418;52.694;13.294;2024-03-23T16:11:54;7.80;22.40
18577;DHT22;9418;52.694;13.294;2024-03-23T16:14:21;7.80;85.00
18577;DHT22;9418;52.694;13.294;2024-03-23T16:16:46;7.80;99.90
18577;DHT22;9418;52.694;13.294;2024-03-23T16:19:13;7.90;21.60
18577;DHT22;9418;52.694;13.294;2024-03-23T16:21:40;7.90;25.60
18577;DHT22;9418;52.694;13.294;2024-03-23T16:24:07;7.80;31.90
18577;DHT22;9418;52.694;13.294;2024-03-23T16:26:33;7.70;31.20
18577;DHT22;9418;52.694;13.294;2024-03-23T16:29:00;7.80;29.80
18577;DHT22;9418;52.694;13.294;2024-03-23T16:31:25;7.80;41.60
18577;DHT22;9418;52.694;13.294;2024-03-23T16:33:52;7.90;55.10